Chesapeake, VA

7:49 PM EST on December 10, 2016 (GMT -0500)
Chesapeake Regional

Weather History for KCPK - November, 2012

Change the Weather History Date:

Thursday, November 29, 2012

  Actual Average (KSFQ) Record (KSFQ)
Temperature  
Mean Temperature 40 °F -  
Max Temperature 53 °F 58 °F 75 °F (1998)
Min Temperature 26 °F 37 °F 19 °F (1955)
Degree Days  
Heating Degree Days 26    
Moisture  
Dew Point 30 °F    
Average Humidity 78    
Maximum Humidity 100    
Minimum Humidity 38    
Precipitation  
Precipitation 0.00 in - - ()
Sea Level Pressure  
Sea Level Pressure 30.43 in    
Wind  
Wind Speed 1 mph (SSE)    
Max Wind Speed 9 mph    
Max Gust Speed -    
Visibility 9 miles    
Events      
Averages and records for this station are not official NWS values.
T = Trace of Precipitation, MM = Missing Value Source: NWS Daily Summary

Daily Weather History Graph

Daily Weather History Graph

Search for Another Location

Airport or City:

Trip Planner

Search our weather history database for the weather conditions in past years. The results will help you decide how hot, cold, wet, or windy it might be!

Date:

Astronomy

Nov. 29, 2012 Rise Set
Actual Time 6:57 AM EST 4:49 PM EST
Civil Twilight 6:29 AM EST 5:18 PM EST
Nautical Twilight 5:57 AM EST 5:50 PM EST
Astronomical Twilight 5:26 AM EST 6:21 PM EST
Moon 5:51 PM EST (11/29) 7:42 AM EST (11/29)
Length of Visible Light 10h 48m
Length of Day
9h 52m
Full, 99% of the Moon is Illuminated
Nov 29
Full
Dec 6
Last Quarter
Dec 13
New
Dec 20
First Quarter
Dec 28
Full

Hourly Weather History & Observations

Time (EST) Temp. Windchill Dew Point Humidity Pressure Visibility Wind Dir Wind Speed Gust Speed Precip Events Conditions
12:15 AM 28.4 °F - 28.4 °F 100% 30.39 in 5.0 mi Calm Calm - N/A   Clear
12:35 AM 30.2 °F - 28.4 °F 93% 30.38 in 7.0 mi Calm Calm - N/A   Clear
12:55 AM 28.4 °F - 26.6 °F 93% 30.38 in 10.0 mi Calm Calm - N/A   Clear
1:35 AM 26.6 °F - 26.6 °F 100% 30.39 in 7.0 mi Calm Calm - N/A   Clear
2:15 AM 28.4 °F - 26.6 °F 93% 30.40 in 10.0 mi Calm Calm - N/A   Clear
2:35 AM 28.4 °F - 26.6 °F 93% 30.41 in 10.0 mi Calm Calm - N/A   Clear
2:55 AM 28.4 °F - 28.4 °F 100% 30.41 in 7.0 mi Calm Calm - N/A   Clear
3:15 AM 28.4 °F - 26.6 °F 93% 30.41 in 10.0 mi Calm Calm - N/A   Clear
3:35 AM 26.6 °F - 26.6 °F 100% 30.41 in 10.0 mi Calm Calm - N/A   Clear
3:55 AM 26.6 °F - 26.6 °F 100% 30.41 in 10.0 mi Calm Calm - N/A   Clear
4:15 AM 26.6 °F - 24.8 °F 93% 30.42 in 10.0 mi Calm Calm - N/A   Clear
4:35 AM 26.6 °F - 26.6 °F 100% 30.42 in 10.0 mi Calm Calm - N/A   Clear
4:55 AM 26.6 °F - 24.8 °F 93% 30.42 in 10.0 mi Calm Calm - N/A   Clear
5:15 AM 26.6 °F - 26.6 °F 100% 30.42 in 7.0 mi Calm Calm - N/A   Clear
5:35 AM 26.6 °F - 26.6 °F 100% 30.42 in 7.0 mi Calm Calm - N/A   Clear
5:55 AM 26.6 °F - 26.6 °F 100% 30.42 in 7.0 mi Calm Calm - N/A   Clear
6:15 AM 26.6 °F - 26.6 °F 100% 30.42 in 10.0 mi Calm Calm - N/A   Clear
6:35 AM 26.6 °F - 24.8 °F 93% 30.44 in 10.0 mi Calm Calm - N/A   Clear
6:55 AM 26.6 °F - 24.8 °F 93% 30.45 in 7.0 mi Calm Calm - N/A   Clear
7:15 AM 26.6 °F - 24.8 °F 93% 30.45 in 10.0 mi Calm Calm - N/A   Clear
7:35 AM 26.6 °F - 24.8 °F 93% 30.46 in 10.0 mi Calm Calm - N/A   Clear
7:55 AM 26.6 °F - 26.6 °F 100% 30.46 in 7.0 mi Calm Calm - N/A   Clear
8:15 AM 30.2 °F - 28.4 °F 93% 30.47 in 7.0 mi Calm Calm - N/A   Clear
8:35 AM 33.8 °F - 30.2 °F 87% 30.48 in 7.0 mi Calm Calm - N/A   Clear
8:55 AM 35.6 °F - 33.8 °F 93% 30.48 in - Calm Calm - N/A   Unknown
9:15 AM 41.0 °F - 37.4 °F 87% 30.48 in 10.0 mi Calm Calm - N/A   Clear
9:35 AM 44.6 °F 43.1 °F 33.8 °F 66% 30.49 in 10.0 mi ENE 3.5 mph - N/A   Clear
9:55 AM 46.4 °F 43.5 °F 32.0 °F 57% 30.49 in 10.0 mi ENE 5.8 mph - N/A   Clear
10:15 AM 48.2 °F - 30.2 °F 50% 30.49 in 10.0 mi ENE 8.1 mph - N/A   Clear
10:35 AM 48.2 °F - 30.2 °F 50% 30.49 in 10.0 mi East 5.8 mph - N/A   Clear
10:55 AM 48.2 °F - 30.2 °F 50% 30.49 in 10.0 mi East 4.6 mph - N/A   Clear
11:15 AM 50.0 °F - 30.2 °F 47% 30.47 in 10.0 mi East 3.5 mph - N/A   Clear
11:35 AM 50.0 °F - 30.2 °F 47% 30.47 in 10.0 mi ESE 3.5 mph - N/A   Clear
11:55 AM 50.0 °F - 30.2 °F 47% 30.46 in 10.0 mi SSW 3.5 mph - N/A   Clear
12:15 PM 51.8 °F - 30.2 °F 44% 30.46 in 10.0 mi South 6.9 mph - N/A   Clear
12:55 PM 51.8 °F - 30.2 °F 44% 30.44 in 10.0 mi South 8.1 mph - N/A   Clear
1:15 PM 51.8 °F - 30.2 °F 44% 30.43 in 10.0 mi SSW 4.6 mph - N/A   Clear
1:35 PM 53.6 °F - 30.2 °F 41% 30.43 in 10.0 mi SSW 4.6 mph - N/A   Clear
1:55 PM 53.6 °F - 28.4 °F 38% 30.42 in 10.0 mi WSW 3.5 mph - N/A   Clear
2:15 PM 53.6 °F - 30.2 °F 41% 30.41 in 10.0 mi South 9.2 mph - N/A   Clear
2:35 PM 53.6 °F - 30.2 °F 41% 30.40 in 10.0 mi South 4.6 mph - N/A   Clear
2:55 PM 53.6 °F - 28.4 °F 38% 30.39 in 10.0 mi SSW 5.8 mph - N/A   Clear
3:15 PM 53.6 °F - 30.2 °F 41% 30.39 in 10.0 mi South 5.8 mph - N/A   Clear
3:35 PM 51.8 °F - 30.2 °F 44% 30.39 in 10.0 mi South 5.8 mph - N/A   Clear
3:55 PM 51.8 °F - 30.2 °F 44% 30.39 in 10.0 mi South 6.9 mph - N/A   Clear
4:15 PM 51.8 °F - 32.0 °F 47% 30.39 in 10.0 mi South 6.9 mph - N/A   Clear
4:35 PM 50.0 °F - 32.0 °F 50% 30.38 in 10.0 mi South 4.6 mph - N/A   Clear
4:55 PM 48.2 °F - 32.0 °F 54% 30.39 in 10.0 mi South 3.5 mph - N/A   Clear
5:15 PM 44.6 °F - 33.8 °F 66% 30.40 in 10.0 mi Calm Calm - N/A   Clear
5:35 PM 44.6 °F - 33.8 °F 66% 30.40 in 10.0 mi Calm Calm - N/A   Clear
5:55 PM 41.0 °F 39.0 °F 33.8 °F 76% 30.41 in 10.0 mi ESE 3.5 mph - N/A   Clear
6:15 PM 41.0 °F 38.0 °F 33.8 °F 76% 30.41 in 10.0 mi SE 4.6 mph - N/A   Clear
6:35 PM 41.0 °F - 33.8 °F 76% 30.41 in 10.0 mi Calm Calm - N/A   Clear
6:55 PM 37.4 °F - 33.8 °F 87% 30.42 in 10.0 mi Calm Calm - N/A   Clear
7:15 PM 37.4 °F 33.8 °F 33.8 °F 87% 30.42 in 10.0 mi SSE 4.6 mph - N/A   Clear
7:35 PM 37.4 °F 34.9 °F 33.8 °F 87% 30.42 in 10.0 mi SE 3.5 mph - N/A   Clear
7:55 PM 37.4 °F - 33.8 °F 87% 30.42 in 10.0 mi Calm Calm - N/A   Clear
8:15 PM 35.6 °F - 33.8 °F 93% 30.42 in 10.0 mi Calm Calm - N/A   Clear
8:35 PM 35.6 °F - 33.8 °F 93% 30.42 in 10.0 mi Calm Calm - N/A   Clear
8:55 PM 33.8 °F - 32.0 °F 93% 30.42 in 10.0 mi Calm Calm - N/A   Clear
9:15 PM 33.8 °F - 33.8 °F 100% 30.42 in 10.0 mi Calm Calm - N/A   Clear
9:35 PM 32.0 °F - 30.2 °F 93% 30.42 in 10.0 mi Calm Calm - N/A   Clear
9:55 PM 32.0 °F - 30.2 °F 93% 30.42 in 10.0 mi Calm Calm - N/A   Clear
10:15 PM 32.0 °F - 30.2 °F 93% 30.43 in 10.0 mi Calm Calm - N/A   Clear
10:35 PM 32.0 °F - 30.2 °F 93% 30.42 in 10.0 mi Calm Calm - N/A   Clear
10:55 PM 30.2 °F - 30.2 °F 100% 30.42 in 10.0 mi Calm Calm - N/A   Clear
11:15 PM 30.2 °F - 30.2 °F 100% 30.42 in 7.0 mi Calm Calm - N/A   Clear
11:35 PM 30.2 °F - 30.2 °F 100% 30.41 in 7.0 mi Calm Calm - N/A   Clear
11:55 PM 30.2 °F - 28.4 °F 93% 30.41 in 7.0 mi Calm Calm - N/A   Clear